INDIA METEOROLOGICAL DEPARTMENT, R.M.C. NEW DELHI
Airport METARs
Date : 22-01-2019
Sl. # Airport METAR
1 Amritsar VIAR 211930Z 11006KT 2000 BR SCT030 FEW035CB BKN080 12/12 Q1013 NOSIG=
2 Delhi VIDP 211930Z 09010G20KT 2100 -TSRA SCT030 FEW040CB BKN100 15/14 Q1012 TEMPO 1500 TSRA=
3 Jaipur VIJP 212000Z 11006KT 2000 -TSRA SCT030 FEW035CB OVC090 15/14 Q1012 NOSIG=
4 Lucknow VILK 211930Z 06008KT 1500 R27/2000 RMID/2000 R09/2000 HZ SCT100 19/12 Q1014 NOSIG=
5 Varanasi VEBN 211830Z 09006KT 2000 BR NSC 16/13 Q1014 NOSIG=
6 Leh VILH 211930Z VRB01KT 6000 FEW070 BKN120 -5/-2 Q1014 NOSIG=
7 Sri Nagar VISR 211930Z 03003KT 1000 BR-RASN BKN007 SCT015 OVC080 00/00 Q1013 NOSIG=
8 Jammu VIJU 211930Z 10010KT 6000 SCT018 SCT025 BKN080 11/07 Q1013 NOSIG=
9 Jodhpur VIJO 211930Z 13003KT 6000 SCT020 FEW030CB BKN090 13/10 Q1013=
10 Jaisalmer VIJR 211930Z VRB02KT 5000 BR FEW020 13/13 Q1012 BECMG 4000=
11 Gorakhpur VEGK 211800Z VRB02KT 0800 FG SKC 12/12 Q1015 NOSIG=
12 Agra VIAG 211930Z 09008KT 2500 BRTS SCT025 FEW030CB BKN080 16/15 Q1011 TEMPO 1500=
13 Chandigarh VICG 211930Z 12009KT 3000 HZTSRA SCT025 FEW030CB BKN090 15/10 Q1012 TEMPO 12015G25KT=

 

--- End of List ---